sensor_id;sensor_type;location;lat;lon;timestamp;pressure;altitude;pressure_sealevel;temperature;humidity
61014;BME280;46899;47.542;19.082;2024-03-02T00:00:42;99847.47;;;8.55;100.00
61014;BME280;46899;47.542;19.082;2024-03-02T00:03:59;99851.13;;;8.50;100.00
61014;BME280;46899;47.542;19.082;2024-03-02T00:07:20;99853.88;;;8.45;100.00
61014;BME280;46899;47.542;19.082;2024-03-02T00:10:39;99854.84;;;8.43;100.00
61014;BME280;46899;47.542;19.082;2024-03-02T00:14:07;99841.09;;;8.41;100.00
61014;BME280;46899;47.542;19.082;2024-03-02T00:17:29;99841.37;;;8.32;100.00
61014;BME280;46899;47.542;19.082;2024-03-02T00:20:42;99831.75;;;8.35;100.00
61014;BME280;46899;47.542;19.082;2024-03-02T00:23:56;99827.59;;;8.31;100.00
61014;BME280;46899;47.542;19.082;2024-03-02T00:27:15;99830.19;;;8.31;100.00
61014;BME280;46899;47.542;19.082;2024-03-02T00:34:17;99828.78;;;8.46;100.00
61014;BME280;46899;47.542;19.082;2024-03-02T00:37:36;99831.34;;;8.47;100.00
61014;BME280;46899;47.542;19.082;2024-03-02T00:40:52;99827.81;;;8.48;100.00
61014;BME280;46899;47.542;19.082;2024-03-02T00:44:17;99846.72;;;8.52;100.00
61014;BME280;46899;47.542;19.082;2024-03-02T00:47:31;99841.37;;;8.56;100.00
61014;BME280;46899;47.542;19.082;2024-03-02T00:50:52;99849.94;;;8.58;100.00
61014;BME280;46899;47.542;19.082;2024-03-02T00:54:13;99839.25;;;8.67;100.00
61014;BME280;46899;47.542;19.082;2024-03-02T00:57:34;99845.22;;;8.69;100.00
61014;BME280;46899;47.542;19.082;2024-03-02T01:00:44;99853.69;;;8.74;100.00
61014;BME280;46899;47.542;19.082;2024-03-02T01:03:58;99846.59;;;8.79;100.00
61014;BME280;46899;47.542;19.082;2024-03-02T01:07:29;99852.47;;;8.84;100.00
61014;BME280;46899;47.542;19.082;2024-03-02T01:10:46;99846.44;;;8.84;100.00
61014;BME280;46899;47.542;19.082;2024-03-02T01:13:59;99852.31;;;8.89;100.00
61014;BME280;46899;47.542;19.082;2024-03-02T01:17:12;99846.22;;;8.90;100.00
61014;BME280;46899;47.542;19.082;2024-03-02T01:20:26;99846.22;;;8.90;100.00
61014;BME280;46899;47.542;19.082;2024-03-02T01:23:41;99833.97;;;8.93;100.00
61014;BME280;46899;47.542;19.082;2024-03-02T01:26:54;99824.63;;;8.89;100.00
61014;BME280;46899;47.542;19.082;2024-03-02T01:30:11;99823.06;;;8.85;100.00
61014;BME280;46899;47.542;19.082;2024-03-02T01:33:28;99819.38;;;8.91;100.00
61014;BME280;46899;47.542;19.082;2024-03-02T01:36:48;99815.19;;;8.87;100.00
61014;BME280;46899;47.542;19.082;2024-03-02T01:40:09;99810.00;;;8.87;100.00
61014;BME280;46899;47.542;19.082;2024-03-02T01:43:26;99799.62;;;8.87;100.00
61014;BME280;46899;47.542;19.082;2024-03-02T01:46:45;99802.41;;;8.82;100.00
61014;BME280;46899;47.542;19.082;2024-03-02T01:50:03;99799.84;;;8.81;100.00
61014;BME280;46899;47.542;19.082;2024-03-02T01:53:15;99801.63;;;8.80;100.00
61014;BME280;46899;47.542;19.082;2024-03-02T01:56:28;99800.84;;;8.78;100.00
61014;BME280;46899;47.542;19.082;2024-03-02T01:59:40;99804.31;;;8.77;100.00
61014;BME280;46899;47.542;19.082;2024-03-02T02:02:51;99804.94;;;8.84;100.00
61014;BME280;46899;47.542;19.082;2024-03-02T02:06:02;99807.19;;;8.93;100.00
61014;BME280;46899;47.542;19.082;2024-03-02T02:09:19;99810.72;;;8.90;100.00
61014;BME280;46899;47.542;19.082;2024-03-02T02:12:26;99821.28;;;8.86;100.00
61014;BME280;46899;47.542;19.082;2024-03-02T02:15:39;99815.19;;;8.87;100.00
61014;BME280;46899;47.542;19.082;2024-03-02T02:18:57;99812.34;;;8.94;100.00
61014;BME280;46899;47.542;19.082;2024-03-02T02:22:11;99824.22;;;9.00;100.00
61014;BME280;46899;47.542;19.082;2024-03-02T02:25:23;99829.22;;;9.05;100.00
61014;BME280;46899;47.542;19.082;2024-03-02T02:28:37;99834.75;;;8.95;100.00
61014;BME280;46899;47.542;19.082;2024-03-02T02:32:03;99829.03;;;8.87;100.00
61014;BME280;46899;47.542;19.082;2024-03-02T02:35:23;99825.69;;;8.84;100.00
61014;BME280;46899;47.542;19.082;2024-03-02T02:38:52;99832.78;;;8.79;100.00
61014;BME280;46899;47.542;19.082;2024-03-02T02:42:16;99834.47;;;8.80;100.00
61014;BME280;46899;47.542;19.082;2024-03-02T02:45:29;99828.69;;;8.73;100.00
61014;BME280;46899;47.542;19.082;2024-03-02T02:48:41;99827.66;;;8.77;100.00
61014;BME280;46899;47.542;19.082;2024-03-02T02:51:56;99822.41;;;8.79;100.00
61014;BME280;46899;47.542;19.082;2024-03-02T02:55:12;99821.97;;;8.91;100.00
61014;BME280;46899;47.542;19.082;2024-03-02T02:58:26;99817.13;;;8.82;100.00
61014;BME280;46899;47.542;19.082;2024-03-02T03:01:41;99817.22;;;8.79;100.00
61014;BME280;46899;47.542;19.082;2024-03-02T03:04:58;99825.16;;;8.74;100.00
61014;BME280;46899;47.542;19.082;2024-03-02T03:08:13;99823.53;;;8.72;100.00
61014;BME280;46899;47.542;19.082;2024-03-02T03:11:31;99834.91;;;8.68;100.00
61014;BME280;46899;47.542;19.082;2024-03-02T03:14:46;99840.16;;;8.66;100.00
61014;BME280;46899;47.542;19.082;2024-03-02T03:17:59;99833.37;;;8.62;100.00
61014;BME280;46899;47.542;19.082;2024-03-02T03:21:16;99828.25;;;8.61;100.00
61014;BME280;46899;47.542;19.082;2024-03-02T03:24:31;99835.44;;;8.77;100.00
61014;BME280;46899;47.542;19.082;2024-03-02T03:27:48;99834.47;;;8.80;100.00
61014;BME280;46899;47.542;19.082;2024-03-02T03:31:06;99834.97;;;8.66;100.00
61014;BME280;46899;47.542;19.082;2024-03-02T03:34:23;99831.59;;;8.64;100.00
61014;BME280;46899;47.542;19.082;2024-03-02T03:37:40;99830.78;;;8.62;100.00
61014;BME280;46899;47.542;19.082;2024-03-02T03:40:55;99824.78;;;8.62;100.00
61014;BME280;46899;47.542;19.082;2024-03-02T03:44:11;99828.31;;;8.59;100.00
61014;BME280;46899;47.542;19.082;2024-03-02T03:47:24;99832.59;;;8.60;100.00
61014;BME280;46899;47.542;19.082;2024-03-02T03:50:44;99838.00;;;8.54;100.00
61014;BME280;46899;47.542;19.082;2024-03-02T03:54:03;99840.19;;;8.65;100.00
61014;BME280;46899;47.542;19.082;2024-03-02T03:57:23;99846.47;;;8.59;100.00
61014;BME280;46899;47.542;19.082;2024-03-02T04:00:40;99853.44;;;8.57;100.00
61014;BME280;46899;47.542;19.082;2024-03-02T04:03:53;99851.69;;;8.58;100.00
61014;BME280;46899;47.542;19.082;2024-03-02T04:07:13;99856.84;;;8.59;100.00
61014;BME280;46899;47.542;19.082;2024-03-02T04:10:31;99863.81;;;8.57;100.00
61014;BME280;46899;47.542;19.082;2024-03-02T04:13:43;99858.69;;;8.56;100.00
61014;BME280;46899;47.542;19.082;2024-03-02T04:16:59;99861.34;;;8.54;100.00
61014;BME280;46899;47.542;19.082;2024-03-02T04:20:13;99862.22;;;8.53;100.00
61014;BME280;46899;47.542;19.082;2024-03-02T04:23:32;99865.75;;;8.52;100.00
61014;BME280;46899;47.542;19.082;2024-03-02T04:26:53;99865.78;;;8.51;100.00
61014;BME280;46899;47.542;19.082;2024-03-02T04:30:10;99861.44;;;8.51;100.00
61014;BME280;46899;47.542;19.082;2024-03-02T04:33:27;99867.66;;;8.46;100.00
61014;BME280;46899;47.542;19.082;2024-03-02T04:36:41;99868.69;;;8.42;100.00
61014;BME280;46899;47.542;19.082;2024-03-02T04:39:55;99872.13;;;8.42;100.00
61014;BME280;46899;47.542;19.082;2024-03-02T04:43:13;99860.97;;;8.40;100.00
61014;BME280;46899;47.542;19.082;2024-03-02T04:46:27;99862.00;;;8.35;100.00
61014;BME280;46899;47.542;19.082;2024-03-02T04:49:43;99869.00;;;8.33;100.00
61014;BME280;46899;47.542;19.082;2024-03-02T04:52:53;99865.66;;;8.29;100.00
61014;BME280;46899;47.542;19.082;2024-03-02T04:56:11;99860.72;;;8.21;100.00
61014;BME280;46899;47.542;19.082;2024-03-02T04:59:46;99876.34;;;8.18;100.00
61014;BME280;46899;47.542;19.082;2024-03-02T05:03:10;99878.06;;;8.19;100.00
61014;BME280;46899;47.542;19.082;2024-03-02T05:06:35;99876.34;;;8.18;100.00
61014;BME280;46899;47.542;19.082;2024-03-02T05:09:51;99873.13;;;8.12;100.00
61014;BME280;46899;47.542;19.082;2024-03-02T05:13:07;99870.56;;;8.10;100.00
61014;BME280;46899;47.542;19.082;2024-03-02T05:16:21;99867.94;;;8.12;100.00
61014;BME280;46899;47.542;19.082;2024-03-02T05:19:36;99869.59;;;8.14;100.00
61014;BME280;46899;47.542;19.082;2024-03-02T05:22:47;99870.41;;;8.15;100.00
61014;BME280;46899;47.542;19.082;2024-03-02T05:25:58;99881.69;;;8.14;100.00
61014;BME280;46899;47.542;19.082;2024-03-02T05:29:13;99879.94;;;8.14;100.00
61014;BME280;46899;47.542;19.082;2024-03-02T05:32:28;99878.09;;;8.18;100.00
61014;BME280;46899;47.542;19.082;2024-03-02T05:35:41;99868.62;;;8.17;100.00
61014;BME280;46899;47.542;19.082;2024-03-02T05:38:55;99865.97;;;8.18;100.00
61014;BME280;46899;47.542;19.082;2024-03-02T05:42:08;99866.94;;;8.16;100.00
61014;BME280;46899;47.542;19.082;2024-03-02T05:45:19;99866.94;;;8.16;100.00
61014;BME280;46899;47.542;19.082;2024-03-02T05:48:31;99865.19;;;8.16;100.00
61014;BME280;46899;47.542;19.082;2024-03-02T05:51:43;99859.22;;;8.14;100.00
61014;BME280;46899;47.542;19.082;2024-03-02T05:54:57;99881.16;;;8.31;100.00
61014;BME280;46899;47.542;19.082;2024-03-02T05:58:10;99894.44;;;8.46;100.00
61014;BME280;46899;47.542;19.082;2024-03-02T06:02:06;99892.25;;;8.34;100.00
61014;BME280;46899;47.542;19.082;2024-03-02T06:05:28;99903.69;;;8.29;100.00
61014;BME280;46899;47.542;19.082;2024-03-02T06:08:43;99905.38;;;8.30;100.00
61014;BME280;46899;47.542;19.082;2024-03-02T06:11:56;99909.69;;;8.29;100.00
61014;BME280;46899;47.542;19.082;2024-03-02T06:15:06;99913.94;;;8.32;100.00
61014;BME280;46899;47.542;19.082;2024-03-02T06:18:21;99907.72;;;8.37;100.00
61014;BME280;46899;47.542;19.082;2024-03-02T06:21:33;99915.41;;;8.40;100.00
61014;BME280;46899;47.542;19.082;2024-03-02T06:24:47;99909.22;;;8.44;100.00
61014;BME280;46899;47.542;19.082;2024-03-02T06:28:03;99910.91;;;8.45;100.00
61014;BME280;46899;47.542;19.082;2024-03-02T06:31:19;99911.75;;;8.46;100.00
61014;BME280;46899;47.542;19.082;2024-03-02T06:34:39;99915.78;;;8.54;100.00
61014;BME280;46899;47.542;19.082;2024-03-02T06:37:56;99917.31;;;8.60;100.00
61014;BME280;46899;47.542;19.082;2024-03-02T06:41:13;99916.66;;;8.55;100.00
61014;BME280;46899;47.542;19.082;2024-03-02T06:44:31;99919.06;;;8.59;100.00
61014;BME280;46899;47.542;19.082;2024-03-02T06:47:50;99919.97;;;8.58;100.00
61014;BME280;46899;47.542;19.082;2024-03-02T06:51:02;99923.31;;;8.62;100.00
61014;BME280;46899;47.542;19.082;2024-03-02T06:54:19;99920.44;;;8.69;100.00
61014;BME280;46899;47.542;19.082;2024-03-02T06:57:36;99921.34;;;8.68;100.00
61014;BME280;46899;47.542;19.082;2024-03-02T07:00:49;99925.37;;;8.77;100.00
61014;BME280;46899;47.542;19.082;2024-03-02T07:04:06;99921.81;;;8.79;100.00
61014;BME280;46899;47.542;19.082;2024-03-02T07:07:24;99919.75;;;8.89;100.00
61014;BME280;46899;47.542;19.082;2024-03-02T07:10:41;99923.13;;;8.91;100.00
61014;BME280;46899;47.542;19.082;2024-03-02T07:13:58;99924.69;;;8.97;100.00
61014;BME280;46899;47.542;19.082;2024-03-02T07:17:14;99928.91;;;8.99;100.00
61014;BME280;46899;47.542;19.082;2024-03-02T07:20:36;99928.91;;;8.99;100.00
61014;BME280;46899;47.542;19.082;2024-03-02T07:24:00;99931.44;;;9.01;100.00
61014;BME280;46899;47.542;19.082;2024-03-02T07:27:21;99929.91;;;8.95;100.00
61014;BME280;46899;47.542;19.082;2024-03-02T07:30:33;99932.25;;;9.03;100.00
61014;BME280;46899;47.542;19.082;2024-03-02T07:33:48;99926.88;;;9.07;100.00
61014;BME280;46899;47.542;19.082;2024-03-02T07:37:07;99941.56;;;9.08;100.00
61014;BME280;46899;47.542;19.082;2024-03-02T07:40:23;99948.44;;;9.09;100.00
61014;BME280;46899;47.542;19.082;2024-03-02T07:43:46;99934.47;;;9.13;100.00
61014;BME280;46899;47.542;19.082;2024-03-02T07:47:10;99939.75;;;9.10;100.00
61014;BME280;46899;47.542;19.082;2024-03-02T07:50:27;99947.78;;;9.04;100.00
61014;BME280;46899;47.542;19.082;2024-03-02T07:53:43;99946.84;;;9.05;100.00
61014;BME280;46899;47.542;19.082;2024-03-02T07:57:06;99947.28;;;8.93;100.00
61014;BME280;46899;47.542;19.082;2024-03-02T08:00:26;99952.59;;;8.90;100.00
61014;BME280;46899;47.542;19.082;2024-03-02T08:03:39;99946.75;;;9.08;100.00
61014;BME280;46899;47.542;19.082;2024-03-02T08:06:52;99957.59;;;9.19;100.00
61014;BME280;46899;47.542;19.082;2024-03-02T08:10:10;99964.44;;;9.22;100.00
61014;BME280;46899;47.542;19.082;2024-03-02T08:13:22;99962.22;;;9.11;100.00
61014;BME280;46899;47.542;19.082;2024-03-02T08:16:37;99965.03;;;9.05;100.00
61014;BME280;46899;47.542;19.082;2024-03-02T08:19:51;99964.00;;;9.09;100.00
61014;BME280;46899;47.542;19.082;2024-03-02T08:23:05;99953.91;;;9.02;100.00
61014;BME280;46899;47.542;19.082;2024-03-02T08:26:19;99964.94;;;9.08;100.00
61014;BME280;46899;47.542;19.082;2024-03-02T08:29:33;99970.13;;;9.08;100.00
61014;BME280;46899;47.542;19.082;2024-03-02T08:32:45;99962.50;;;9.04;100.00
61014;BME280;46899;47.542;19.082;2024-03-02T08:35:58;99960.59;;;9.09;100.00
61014;BME280;46899;47.542;19.082;2024-03-02T08:39:12;99968.16;;;9.15;100.00
61014;BME280;46899;47.542;19.082;2024-03-02T08:42:28;99959.91;;;9.04;100.00
61014;BME280;46899;47.542;19.082;2024-03-02T08:45:46;99960.06;;;8.99;100.00
61014;BME280;46899;47.542;19.082;2024-03-02T08:49:04;99966.88;;;9.02;100.00
61014;BME280;46899;47.542;19.082;2024-03-02T08:52:23;99963.87;;;8.89;100.00
61014;BME280;46899;47.542;19.082;2024-03-02T08:55:36;99967.00;;;8.99;100.00
61014;BME280;46899;47.542;19.082;2024-03-02T08:58:50;99967.25;;;9.16;100.00
61014;BME280;46899;47.542;19.082;2024-03-02T09:02:06;99964.94;;;9.08;100.00
61014;BME280;46899;47.542;19.082;2024-03-02T09:05:22;99958.19;;;9.27;100.00
61014;BME280;46899;47.542;19.082;2024-03-02T09:08:35;99960.53;;;9.33;100.00
61014;BME280;46899;47.542;19.082;2024-03-02T09:11:51;99966.59;;;9.57;100.00
61014;BME280;46899;47.542;19.082;2024-03-02T09:15:10;99967.88;;;9.69;100.00
61014;BME280;46899;47.542;19.082;2024-03-02T09:18:33;99967.62;;;9.53;100.00
61014;BME280;46899;47.542;19.082;2024-03-02T09:21:55;99969.97;;;9.36;100.00
61014;BME280;46899;47.542;19.082;2024-03-02T09:25:14;99970.22;;;9.30;100.00
61014;BME280;46899;47.542;19.082;2024-03-02T09:28:28;99963.13;;;9.33;100.00
61014;BME280;46899;47.542;19.082;2024-03-02T09:31:43;99967.28;;;9.39;100.00
61014;BME280;46899;47.542;19.082;2024-03-02T09:34:58;99971.59;;;9.15;100.00
61014;BME280;46899;47.542;19.082;2024-03-02T09:38:12;99969.78;;;9.17;100.00
61014;BME280;46899;47.542;19.082;2024-03-02T09:41:34;99971.94;;;9.29;100.00
61014;BME280;46899;47.542;19.082;2024-03-02T09:44:48;99973.97;;;9.44;100.00
61014;BME280;46899;47.542;19.082;2024-03-02T09:48:00;99975.78;;;9.42;100.00
61014;BME280;46899;47.542;19.082;2024-03-02T09:51:14;99970.16;;;9.54;100.00
61014;BME280;46899;47.542;19.082;2024-03-02T09:54:24;99971.34;;;9.46;100.00
61014;BME280;46899;47.542;19.082;2024-03-02T09:57:42;99971.28;;;9.47;100.00
61014;BME280;46899;47.542;19.082;2024-03-02T10:00:54;99968.69;;;9.47;100.00
61014;BME280;46899;47.542;19.082;2024-03-02T10:04:09;99970.59;;;9.42;100.00
61014;BME280;46899;47.542;19.082;2024-03-02T10:07:23;99972.19;;;9.46;100.00
61014;BME280;46899;47.542;19.082;2024-03-02T10:10:42;99965.28;;;9.45;100.00
61014;BME280;46899;47.542;19.082;2024-03-02T10:14:14;99979.50;;;9.35;100.00
61014;BME280;46899;47.542;19.082;2024-03-02T10:17:34;99973.94;;;9.46;100.00
61014;BME280;46899;47.542;19.082;2024-03-02T10:20:46;99968.22;;;9.59;100.00
61014;BME280;46899;47.542;19.082;2024-03-02T10:24:07;99971.97;;;9.52;100.00
61014;BME280;46899;47.542;19.082;2024-03-02T10:27:28;99973.16;;;9.44;100.00
61014;BME280;46899;47.542;19.082;2024-03-02T10:30:48;99965.63;;;9.36;100.00
61014;BME280;46899;47.542;19.082;2024-03-02T10:34:09;99969.47;;;9.26;100.00
61014;BME280;46899;47.542;19.082;2024-03-02T10:37:28;99961.13;;;9.41;100.00
61014;BME280;46899;47.542;19.082;2024-03-02T10:40:40;99967.81;;;9.47;100.00
61014;BME280;46899;47.542;19.082;2024-03-02T10:43:58;99964.16;;;9.52;100.00
61014;BME280;46899;47.542;19.082;2024-03-02T10:47:14;99966.50;;;9.60;100.00
61014;BME280;46899;47.542;19.082;2024-03-02T10:50:32;99961.84;;;9.68;100.00
61014;BME280;46899;47.542;19.082;2024-03-02T10:53:51;99957.78;;;9.84;100.00
61014;BME280;46899;47.542;19.082;2024-03-02T10:57:09;99958.69;;;10.05;100.00
61014;BME280;46899;47.542;19.082;2024-03-02T11:00:24;99957.28;;;10.19;100.00
61014;BME280;46899;47.542;19.082;2024-03-02T11:03:42;99965.19;;;10.38;100.00
61014;BME280;46899;47.542;19.082;2024-03-02T11:07:12;99973.78;;;10.40;100.00
61014;BME280;46899;47.542;19.082;2024-03-02T11:10:38;99962.63;;;10.58;100.00
61014;BME280;46899;47.542;19.082;2024-03-02T11:13:57;99964.44;;;10.56;100.00
61014;BME280;46899;47.542;19.082;2024-03-02T11:17:21;99957.53;;;10.55;100.00
61014;BME280;46899;47.542;19.082;2024-03-02T11:20:40;99961.75;;;10.38;100.00
61014;BME280;46899;47.542;19.082;2024-03-02T11:24:00;99952.00;;;10.43;100.00
61014;BME280;46899;47.542;19.082;2024-03-02T11:31:03;99946.69;;;10.86;100.00
61014;BME280;46899;47.542;19.082;2024-03-02T11:34:32;99954.81;;;11.19;100.00
61014;BME280;46899;47.542;19.082;2024-03-02T11:37:52;99946.38;;;11.14;100.00
61014;BME280;46899;47.542;19.082;2024-03-02T11:41:12;99945.78;;;10.87;100.00
61014;BME280;46899;47.542;19.082;2024-03-02T11:44:30;99951.44;;;10.76;100.00
61014;BME280;46899;47.542;19.082;2024-03-02T11:48:00;99947.56;;;10.66;100.00
61014;BME280;46899;47.542;19.082;2024-03-02T11:51:22;99945.81;;;10.67;100.00
61014;BME280;46899;47.542;19.082;2024-03-02T11:54:37;99942.06;;;10.52;100.00
61014;BME280;46899;47.542;19.082;2024-03-02T11:57:54;99939.59;;;10.69;100.00
61014;BME280;46899;47.542;19.082;2024-03-02T12:01:12;99942.84;;;10.54;100.00
61014;BME280;46899;47.542;19.082;2024-03-02T12:04:27;99931.00;;;10.67;100.00
61014;BME280;46899;47.542;19.082;2024-03-02T12:07:42;99942.16;;;10.71;100.00
61014;BME280;46899;47.542;19.082;2024-03-02T12:10:57;99938.50;;;10.75;100.00
61014;BME280;46899;47.542;19.082;2024-03-02T12:14:16;99940.84;;;10.61;100.00
61014;BME280;46899;47.542;19.082;2024-03-02T12:17:32;99933.22;;;10.56;100.00
61014;BME280;46899;47.542;19.082;2024-03-02T12:20:49;99934.97;;;10.36;100.00
61014;BME280;46899;47.542;19.082;2024-03-02T12:24:03;99938.44;;;10.35;100.00
61014;BME280;46899;47.542;19.082;2024-03-02T12:27:19;99947.97;;;10.36;100.00
61014;BME280;46899;47.542;19.082;2024-03-02T12:30:34;99939.91;;;10.42;100.00
61014;BME280;46899;47.542;19.082;2024-03-02T12:33:48;99939.09;;;10.19;100.00
61014;BME280;46899;47.542;19.082;2024-03-02T12:37:12;99938.44;;;10.35;100.00
61014;BME280;46899;47.542;19.082;2024-03-02T12:40:28;99943.19;;;10.25;100.00
61014;BME280;46899;47.542;19.082;2024-03-02T12:43:44;99946.69;;;10.46;100.00
61014;BME280;46899;47.542;19.082;2024-03-02T12:47:00;99945.94;;;10.42;100.00
61014;BME280;46899;47.542;19.082;2024-03-02T12:50:15;99939.09;;;10.19;100.00
61014;BME280;46899;47.542;19.082;2024-03-02T12:53:30;99942.50;;;10.20;100.00
61014;BME280;46899;47.542;19.082;2024-03-02T12:56:44;99941.28;;;10.07;100.00
61014;BME280;46899;47.542;19.082;2024-03-02T13:00:09;99944.97;;;10.01;100.00
61014;BME280;46899;47.542;19.082;2024-03-02T13:03:40;99936.88;;;10.09;100.00
61014;BME280;46899;47.542;19.082;2024-03-02T13:06:54;99939.28;;;10.15;100.00
61014;BME280;46899;47.542;19.082;2024-03-02T13:10:10;99938.28;;;9.96;100.00
61014;BME280;46899;47.542;19.082;2024-03-02T13:13:30;99945.94;;;9.77;100.00
61014;BME280;46899;47.542;19.082;2024-03-02T13:16:44;99940.09;;;9.71;100.00
61014;BME280;46899;47.542;19.082;2024-03-02T13:20:00;99939.19;;;9.72;100.00
61014;BME280;46899;47.542;19.082;2024-03-02T13:23:16;99940.22;;;9.68;100.00
61014;BME280;46899;47.542;19.082;2024-03-02T13:26:37;99943.28;;;9.55;100.00
61014;BME280;46899;47.542;19.082;2024-03-02T13:30:01;99942.44;;;9.55;100.00
61014;BME280;46899;47.542;19.082;2024-03-02T13:33:23;99934.72;;;9.53;100.00
61014;BME280;46899;47.542;19.082;2024-03-02T13:36:39;99941.66;;;9.53;100.00
61014;BME280;46899;47.542;19.082;2024-03-02T13:39:51;99942.81;;;9.44;100.00
61014;BME280;46899;47.542;19.082;2024-03-02T13:43:04;99945.88;;;9.55;100.00
61014;BME280;46899;47.542;19.082;2024-03-02T13:46:22;99945.88;;;9.55;100.00
61014;BME280;46899;47.542;19.082;2024-03-02T13:49:35;99943.50;;;9.73;100.00
61014;BME280;46899;47.542;19.082;2024-03-02T13:52:50;99954.38;;;9.82;100.00
61014;BME280;46899;47.542;19.082;2024-03-02T13:56:03;99945.78;;;9.80;100.00
61014;BME280;46899;47.542;19.082;2024-03-02T13:59:14;99947.56;;;9.80;100.00
61014;BME280;46899;47.542;19.082;2024-03-02T14:02:29;99950.69;;;9.88;100.00
61014;BME280;46899;47.542;19.082;2024-03-02T14:05:43;99951.75;;;9.60;100.00
61014;BME280;46899;47.542;19.082;2024-03-02T14:08:58;99959.56;;;9.60;100.00
61014;BME280;46899;47.542;19.082;2024-03-02T14:12:15;99956.00;;;9.63;100.00
61014;BME280;46899;47.542;19.082;2024-03-02T14:15:27;99949.94;;;9.62;100.00
61014;BME280;46899;47.542;19.082;2024-03-02T14:18:47;99958.09;;;9.75;100.00
61014;BME280;46899;47.542;19.082;2024-03-02T14:22:03;99962.00;;;9.63;100.00
61014;BME280;46899;47.542;19.082;2024-03-02T14:25:19;99966.41;;;9.61;100.00
61014;BME280;46899;47.542;19.082;2024-03-02T14:28:34;99966.81;;;9.74;100.00
61014;BME280;46899;47.542;19.082;2024-03-02T14:32:02;99959.56;;;9.82;100.00
61014;BME280;46899;47.542;19.082;2024-03-02T14:35:17;99963.19;;;9.78;100.00
61014;BME280;46899;47.542;19.082;2024-03-02T14:38:33;99963.25;;;9.77;100.00
61014;BME280;46899;47.542;19.082;2024-03-02T14:41:44;99960.34;;;9.62;100.00
61014;BME280;46899;47.542;19.082;2024-03-02T14:45:00;99960.50;;;9.58;100.00
61014;BME280;46899;47.542;19.082;2024-03-02T14:48:14;99955.59;;;9.50;100.00
61014;BME280;46899;47.542;19.082;2024-03-02T14:51:29;99954.06;;;9.45;100.00
61014;BME280;46899;47.542;19.082;2024-03-02T14:54:39;99962.00;;;9.40;100.00
61014;BME280;46899;47.542;19.082;2024-03-02T14:57:53;99957.41;;;9.48;100.00
61014;BME280;46899;47.542;19.082;2024-03-02T15:01:04;99959.06;;;9.49;100.00
61014;BME280;46899;47.542;19.082;2024-03-02T15:04:25;99955.53;;;9.52;100.00
61014;BME280;46899;47.542;19.082;2024-03-02T15:07:41;99955.41;;;9.55;100.00
61014;BME280;46899;47.542;19.082;2024-03-02T15:10:54;99960.44;;;9.59;100.00
61014;BME280;46899;47.542;19.082;2024-03-02T15:14:12;99959.47;;;9.62;100.00
61014;BME280;46899;47.542;19.082;2024-03-02T15:17:27;99960.44;;;9.59;100.00
61014;BME280;46899;47.542;19.082;2024-03-02T15:20:37;99953.84;;;9.51;100.00
61014;BME280;46899;47.542;19.082;2024-03-02T15:23:52;99955.87;;;9.43;100.00
61014;BME280;46899;47.542;19.082;2024-03-02T15:27:08;99957.78;;;9.38;100.00
61014;BME280;46899;47.542;19.082;2024-03-02T15:30:25;99953.53;;;9.35;100.00
61014;BME280;46899;47.542;19.082;2024-03-02T15:33:42;99955.78;;;9.21;100.00
61014;BME280;46899;47.542;19.082;2024-03-02T15:37:01;99947.72;;;9.29;100.00
61014;BME280;46899;47.542;19.082;2024-03-02T15:40:21;99954.63;;;9.30;100.00
61014;BME280;46899;47.542;19.082;2024-03-02T15:43:35;99953.50;;;9.37;100.00
61014;BME280;46899;47.542;19.082;2024-03-02T15:46:53;99949.81;;;9.42;100.00
61014;BME280;46899;47.542;19.082;2024-03-02T15:50:22;99961.97;;;9.42;100.00
61014;BME280;46899;47.542;19.082;2024-03-02T15:53:41;99958.41;;;9.44;100.00
61014;BME280;46899;47.542;19.082;2024-03-02T15:56:54;99960.09;;;9.45;100.00
61014;BME280;46899;47.542;19.082;2024-03-02T16:00:07;99960.19;;;9.42;100.00
61014;BME280;46899;47.542;19.082;2024-03-02T16:03:21;99956.31;;;9.31;100.00
61014;BME280;46899;47.542;19.082;2024-03-02T16:06:32;99954.22;;;9.40;100.00
61014;BME280;46899;47.542;19.082;2024-03-02T16:09:49;99962.87;;;9.41;100.00
61014;BME280;46899;47.542;19.082;2024-03-02T16:13:01;99961.28;;;9.37;100.00
61014;BME280;46899;47.542;19.082;2024-03-02T16:16:13;99971.03;;;9.30;100.00
61014;BME280;46899;47.542;19.082;2024-03-02T16:19:26;99966.16;;;9.21;100.00
61014;BME280;46899;47.542;19.082;2024-03-02T16:22:42;99967.97;;;9.19;100.00
61014;BME280;46899;47.542;19.082;2024-03-02T16:25:54;99967.94;;;9.21;100.00
61014;BME280;46899;47.542;19.082;2024-03-02T16:29:10;99970.63;;;9.18;100.00
61014;BME280;46899;47.542;19.082;2024-03-02T16:32:23;99976.84;;;9.14;100.00
61014;BME280;46899;47.542;19.082;2024-03-02T16:35:37;99971.50;;;9.18;100.00
61014;BME280;46899;47.542;19.082;2024-03-02T16:38:51;99968.22;;;9.13;100.00
61014;BME280;46899;47.542;19.082;2024-03-02T16:42:03;99971.06;;;9.06;100.00
61014;BME280;46899;47.542;19.082;2024-03-02T16:45:16;99969.78;;;9.17;100.00
61014;BME280;46899;47.542;19.082;2024-03-02T16:48:28;99968.75;;;9.21;100.00
61014;BME280;46899;47.542;19.082;2024-03-02T16:51:45;99971.50;;;9.18;100.00
61014;BME280;46899;47.542;19.082;2024-03-02T16:54:58;99979.31;;;9.17;100.00
61014;BME280;46899;47.542;19.082;2024-03-02T16:58:13;99981.06;;;9.16;100.00
61014;BME280;46899;47.542;19.082;2024-03-02T17:01:25;99979.53;;;9.11;100.00
61014;BME280;46899;47.542;19.082;2024-03-02T17:04:40;99976.00;;;9.13;100.00
61014;BME280;46899;47.542;19.082;2024-03-02T17:07:54;99981.13;;;9.15;100.00
61014;BME280;46899;47.542;19.082;2024-03-02T17:11:03;99971.44;;;9.20;100.00